Atlasburg, Pennsylvania
Current Conditions -  °F | °C
As of 3:51 AM on Sunday 26 Oct 2014 (Local Time) from KPIT Reporting Station
Clear Clear  
Wind Chill: 46°   Ceiling: Unl
Heat Index: 49°   Visibility: 10mi
Dew Point: 32°   Wind: 7mph
Humidity: 52%   Direction: 270°W
Pressure: 29.8"   Gusts: NA
Location:  40.34°N, 80.38°W
Report Text: KPIT 260751Z 27006KT 10SM CLR 09/00 A2980 RMK AO2 SLP098 T00940000
Loading
Personal Weather Stations






























Interactive Weather Map
Tropical Storm Tracking
New forecast layout! Learn more

10-Day Weather Forecast

Advertisements
Track Severe Weather on mobile